Time;durP1;ratioP1;P1;durP2;ratioP2;P2;SDS_P1;SDS_P2;PMS_P1;PMS_P2;Temp;Humidity;BMP_temperature;BMP_pressure;BME280_temperature;BME280_humidity;BME280_pressure;Samples;Min_cycle;Max_cycle;Signal;HPM_P1;HPM_P2
2022/05/19 00:01:01;;;;;;;6.22;4.43;;;20.90;99.90;;;;;;5053752;28;20641;-59
2022/05/19 00:03:24;;;;;;;6.03;4.68;;;20.80;99.90;;;;;;5053256;28;20512;-59
2022/05/19 00:05:50;;;;;;;5.85;4.53;;;20.80;99.90;;;;;;5035498;28;20172;-59
2022/05/19 00:08:15;;;;;;;5.65;4.57;;;20.90;99.90;;;;;;5053534;28;20182;-59
2022/05/19 00:10:42;;;;;;;5.47;4.18;;;20.90;99.90;;;;;;5053356;28;20520;-59
2022/05/19 00:13:08;;;;;;;4.63;3.97;;;20.90;99.90;;;;;;5053276;28;20176;-59
2022/05/19 00:15:34;;;;;;;5.55;4.68;;;20.90;99.90;;;;;;5053423;28;20190;-59
2022/05/19 00:17:59;;;;;;;5.43;4.43;;;20.90;99.90;;;;;;5053004;28;20560;-59
2022/05/19 00:20:25;;;;;;;6.22;4.88;;;20.90;99.90;;;;;;5035490;28;20237;-59
2022/05/19 00:22:51;;;;;;;5.78;4.53;;;20.90;99.90;;;;;;5035301;28;20175;-59
2022/05/19 00:25:17;;;;;;;7.78;5.43;;;21.00;99.90;;;;;;5053405;28;20674;-59
2022/05/19 00:27:42;;;;;;;6.00;4.85;;;20.90;99.90;;;;;;5053680;28;20242;-59
2022/05/19 00:30:08;;;;;;;6.03;5.07;;;20.90;99.90;;;;;;5053989;28;20677;-59
2022/05/19 00:32:34;;;;;;;7.68;5.45;;;20.80;99.90;;;;;;5035620;28;20214;-59
2022/05/19 00:34:59;;;;;;;7.85;5.30;;;20.90;99.90;;;;;;5053881;28;20644;-60
2022/05/19 00:37:25;;;;;;;7.15;5.38;;;20.90;99.90;;;;;;5053537;28;20213;-59
2022/05/19 00:39:51;;;;;;;6.63;4.88;;;20.80;99.90;;;;;;5035902;28;20262;-59
2022/05/19 00:45:02;;;;;;;6.88;4.93;;;20.70;99.90;;;;;;5053819;28;20236;-59
2022/05/19 00:47:57;;;;;;;7.28;5.10;;;20.70;99.90;;;;;;5053440;28;20217;-58
2022/05/19 00:50:34;;;;;;;7.63;4.95;;;20.80;99.90;;;;;;5049350;28;20204;-59
2022/05/19 00:53:11;;;;;;;5.85;4.78;;;20.80;99.90;;;;;;5053344;28;20178;-58
2022/05/19 00:55:42;;;;;;;5.72;4.95;;;20.70;99.90;;;;;;5053572;28;20174;-59
2022/05/19 00:58:33;;;;;;;5.55;4.40;;;20.80;99.90;;;;;;5052906;28;20210;-58
2022/05/19 01:00:58;;;;;;;5.97;5.15;;;20.80;99.90;;;;;;5053411;28;20214;-60
2022/05/19 01:03:28;;;;;;;7.50;4.78;;;20.80;99.90;;;;;;5053242;28;20214;-58
2022/05/19 01:05:59;;;;;;;8.57;5.07;;;20.80;99.90;;;;;;5053015;28;20171;-58
2022/05/19 01:08:40;;;;;;;5.30;4.47;;;20.80;99.90;;;;;;5053135;28;20233;-58
2022/05/19 01:11:07;;;;;;;7.75;5.35;;;20.80;99.90;;;;;;5053270;28;20205;-58
2022/05/19 01:13:35;;;;;;;6.38;5.32;;;20.70;99.90;;;;;;5035592;28;20179;-58
2022/05/19 01:16:03;;;;;;;8.63;5.47;;;20.40;99.90;;;;;;5053037;28;20182;-58
2022/05/19 01:18:30;;;;;;;7.38;5.20;;;20.20;99.90;;;;;;5052911;28;20167;-58
2022/05/19 01:20:56;;;;;;;6.78;5.65;;;20.00;99.90;;;;;;5053089;28;20171;-57
2022/05/19 01:23:48;;;;;;;7.85;5.80;;;20.00;99.90;;;;;;5053121;28;20175;-58
2022/05/19 01:26:28;;;;;;;6.47;4.97;;;19.90;99.90;;;;;;5052961;28;20198;-58
2022/05/19 01:29:00;;;;;;;8.63;5.68;;;19.80;99.90;;;;;;5052988;28;20179;-58
2022/05/19 01:31:32;;;;;;;8.00;5.82;;;19.90;99.90;;;;;;5053155;28;20180;-59
2022/05/19 01:33:58;;;;;;;7.43;5.68;;;20.00;99.90;;;;;;5053037;28;20167;-58
2022/05/19 01:36:24;;;;;;;7.43;5.53;;;20.00;99.90;;;;;;5052894;28;20187;-59
2022/05/19 01:39:06;;;;;;;6.68;5.13;;;19.90;99.90;;;;;;5035291;28;20208;-58
2022/05/19 01:41:43;;;;;;;8.05;5.75;;;19.80;99.90;;;;;;5052955;28;20308;-58
2022/05/19 01:44:37;;;;;;;8.32;6.47;;;19.90;99.90;;;;;;5052798;28;20529;-58
2022/05/19 01:47:21;;;;;;;6.78;6.03;;;19.90;99.90;;;;;;5052802;28;20194;-58
2022/05/19 01:50:23;;;;;;;8.15;6.40;;;19.80;99.90;;;;;;5053279;28;20184;-60
2022/05/19 01:53:13;;;;;;;7.38;6.22;;;19.60;99.90;;;;;;5052815;28;20167;-59
2022/05/19 01:55:59;;;;;;;7.20;6.10;;;19.60;99.90;;;;;;5052690;28;20168;-59
2022/05/19 01:59:04;;;;;;;8.40;7.05;;;19.70;99.90;;;;;;5053162;28;20250;-59
2022/05/19 02:01:30;;;;;;;8.38;6.07;;;19.70;99.90;;;;;;5052517;28;20187;-58
2022/05/19 02:04:17;;;;;;;7.65;6.50;;;19.80;99.90;;;;;;5052434;28;20632;-58
2022/05/19 02:06:53;;;;;;;7.53;6.25;;;19.80;99.90;;;;;;5052686;28;20687;-58
2022/05/19 02:09:25;;;;;;;6.32;5.55;;;19.80;99.90;;;;;;5054237;28;20182;-58
2022/05/19 02:11:56;;;;;;;7.13;4.80;;;19.80;99.90;;;;;;5056420;28;20167;-59
2022/05/19 02:14:29;;;;;;;6.10;4.90;;;19.80;99.90;;;;;;5056297;28;20175;-58
2022/05/19 02:16:55;;;;;;;6.25;5.32;;;19.80;99.90;;;;;;5056278;28;20187;-58
2022/05/19 02:19:26;;;;;;;6.82;5.38;;;19.80;99.90;;;;;;5038688;28;20254;-58
2022/05/19 02:21:52;;;;;;;6.35;5.00;;;19.70;99.90;;;;;;5056270;28;20170;-59
2022/05/19 02:24:22;;;;;;;6.72;5.38;;;19.70;99.90;;;;;;5056202;28;20175;-58
2022/05/19 02:26:48;;;;;;;6.45;5.25;;;19.80;99.90;;;;;;5056018;28;20199;-59
2022/05/19 02:29:19;;;;;;;6.68;5.40;;;19.70;99.90;;;;;;5055956;28;20596;-59
2022/05/19 02:31:46;;;;;;;6.32;4.57;;;19.70;99.90;;;;;;5055804;28;20175;-59
2022/05/19 02:34:12;;;;;;;5.38;4.40;;;19.70;99.90;;;;;;5055960;28;20233;-59
2022/05/19 02:36:39;;;;;;;3.80;3.42;;;19.70;99.90;;;;;;5056242;28;20210;-59
2022/05/19 02:39:04;;;;;;;4.25;3.17;;;19.70;99.90;;;;;;5055874;28;20167;-58
2022/05/19 02:41:30;;;;;;;5.55;4.05;;;19.60;99.90;;;;;;5055728;28;20174;-59
2022/05/19 02:43:56;;;;;;;3.85;3.28;;;19.60;99.90;;;;;;5038215;28;20217;-58
2022/05/19 02:46:22;;;;;;;4.25;3.13;;;19.60;99.90;;;;;;5055831;28;20199;-58
2022/05/19 02:48:47;;;;;;;4.55;3.15;;;19.60;99.90;;;;;;5055657;28;20175;-59
2022/05/19 02:51:13;;;;;;;3.17;2.70;;;19.60;99.90;;;;;;5055742;28;20178;-59
2022/05/19 02:53:38;;;;;;;3.47;3.17;;;19.50;99.90;;;;;;5055602;28;20168;-59
2022/05/19 02:56:05;;;;;;;3.67;3.30;;;19.40;99.90;;;;;;5055517;28;20203;-59
2022/05/19 02:58:30;;;;;;;3.58;2.97;;;19.40;99.90;;;;;;5055454;28;20556;-58
2022/05/19 03:00:56;;;;;;;2.88;2.63;;;19.40;99.90;;;;;;5037587;28;20191;-58
2022/05/19 03:03:22;;;;;;;4.72;3.25;;;19.30;99.90;;;;;;5055459;28;20186;-58
2022/05/19 03:05:48;;;;;;;3.85;3.03;;;19.20;99.90;;;;;;5055362;28;20175;-58
2022/05/19 03:08:14;;;;;;;3.65;3.22;;;19.20;99.90;;;;;;5055217;28;20262;-58
2022/05/19 03:10:42;;;;;;;4.28;3.20;;;19.10;99.90;;;;;;5055156;28;20168;-58
2022/05/19 03:13:15;;;;;;;5.38;3.65;;;19.10;99.90;;;;;;5055427;28;20179;-58
2022/05/19 03:15:41;;;;;;;4.00;3.33;;;19.10;99.90;;;;;;5055314;28;20510;-58
2022/05/19 03:18:07;;;;;;;2.78;2.50;;;19.10;99.90;;;;;;5021074;28;20241;-59
2022/05/19 03:20:33;;;;;;;3.13;2.67;;;19.10;99.90;;;;;;5054846;28;20171;-58
2022/05/19 03:22:58;;;;;;;3.83;2.55;;;19.10;99.90;;;;;;5054998;28;20171;-58
2022/05/19 03:25:24;;;;;;;3.63;2.85;;;19.10;99.90;;;;;;5054924;28;20545;-58
2022/05/19 03:27:50;;;;;;;4.82;2.42;;;19.10;99.90;;;;;;5054832;28;20203;-58
2022/05/19 03:30:17;;;;;;;3.75;2.97;;;19.10;99.90;;;;;;5037088;28;20186;-58
2022/05/19 03:32:43;;;;;;;3.75;3.00;;;19.10;99.90;;;;;;5054954;28;20233;-58
2022/05/19 03:35:10;;;;;;;3.47;2.72;;;19.10;99.90;;;;;;5054866;28;20175;-59
2022/05/19 03:37:36;;;;;;;3.40;2.75;;;19.10;99.90;;;;;;5054785;28;20172;-59
2022/05/19 03:40:03;;;;;;;2.63;2.42;;;19.00;99.90;;;;;;5054588;28;20271;-58
2022/05/19 03:42:28;;;;;;;3.08;2.53;;;19.00;99.90;;;;;;5037046;28;20183;-58
2022/05/19 03:44:54;;;;;;;3.03;2.30;;;18.90;99.90;;;;;;5054775;28;20176;-58
2022/05/19 03:47:20;;;;;;;2.95;2.55;;;18.90;99.90;;;;;;5054598;28;20290;-59
2022/05/19 03:49:45;;;;;;;3.08;1.95;;;18.80;99.90;;;;;;5054447;28;20666;-59
2022/05/19 03:52:11;;;;;;;3.50;2.47;;;18.70;99.90;;;;;;5054418;28;20180;-60
2022/05/19 03:54:37;;;;;;;3.38;2.15;;;18.70;99.90;;;;;;5054347;28;20225;-59
2022/05/19 03:57:03;;;;;;;3.20;2.40;;;18.70;99.90;;;;;;5054464;28;20210;-59
2022/05/19 03:59:28;;;;;;;2.78;2.33;;;18.70;99.90;;;;;;5054301;28;20648;-59
2022/05/19 04:01:54;;;;;;;3.28;2.38;;;18.60;99.90;;;;;;5054686;28;20187;-58
2022/05/19 04:04:20;;;;;;;2.70;2.20;;;18.60;99.90;;;;;;5054261;28;20247;-59
2022/05/19 04:06:45;;;;;;;2.70;2.30;;;18.60;99.90;;;;;;5054116;28;20206;-59
2022/05/19 04:09:11;;;;;;;2.33;2.13;;;18.50;99.90;;;;;;5036554;28;20529;-60
2022/05/19 04:11:37;;;;;;;2.72;2.20;;;18.60;99.90;;;;;;5054348;28;20174;-59
2022/05/19 04:14:03;;;;;;;2.92;2.50;;;18.60;99.90;;;;;;5053954;28;20617;-58
2022/05/19 04:16:28;;;;;;;4.15;2.20;;;18.70;99.90;;;;;;5054065;28;20640;-59
2022/05/19 04:18:54;;;;;;;2.83;2.00;;;18.60;99.90;;;;;;5036085;28;20274;-58
2022/05/19 04:21:20;;;;;;;2.65;2.20;;;18.70;99.90;;;;;;5036210;28;20185;-58
2022/05/19 04:23:46;;;;;;;2.65;2.15;;;18.70;99.90;;;;;;5035823;28;20175;-59
2022/05/19 04:26:12;;;;;;;2.60;1.90;;;18.60;99.90;;;;;;5036015;28;20286;-58
2022/05/19 04:28:37;;;;;;;2.55;2.35;;;18.60;99.90;;;;;;5053792;28;20690;-59
2022/05/19 04:31:03;;;;;;;2.33;2.13;;;18.60;99.90;;;;;;5053649;28;20198;-59
2022/05/19 04:33:28;;;;;;;3.63;2.42;;;18.50;99.90;;;;;;5052891;28;20564;-58
2022/05/19 04:35:55;;;;;;;3.67;2.35;;;18.40;99.90;;;;;;5053670;28;20663;-58
2022/05/19 04:38:21;;;;;;;2.83;2.20;;;18.60;99.90;;;;;;5053540;28;20498;-59
2022/05/19 04:40:48;;;;;;;2.33;1.88;;;18.60;99.90;;;;;;5053702;28;20223;-60
2022/05/19 04:43:24;;;;;;;2.70;2.20;;;18.60;99.90;;;;;;5053483;28;20510;-59
2022/05/19 04:45:51;;;;;;;2.90;2.20;;;18.70;99.90;;;;;;5053564;28;20527;-59
2022/05/19 04:48:17;;;;;;;2.42;1.98;;;18.70;99.90;;;;;;5035622;28;20214;-58
2022/05/19 04:50:43;;;;;;;3.13;2.50;;;18.70;99.90;;;;;;5053296;28;20202;-58
2022/05/19 04:53:09;;;;;;;2.72;2.28;;;18.70;99.90;;;;;;5053604;28;20254;-58
2022/05/19 04:55:37;;;;;;;3.92;2.70;;;18.80;99.90;;;;;;5019193;28;20223;-59
2022/05/19 04:58:04;;;;;;;3.05;2.28;;;18.70;99.90;;;;;;5053405;28;20182;-59
2022/05/19 05:00:30;;;;;;;2.13;1.92;;;18.50;99.90;;;;;;5035439;28;20198;-57
2022/05/19 05:02:56;;;;;;;2.90;2.25;;;18.50;99.90;;;;;;5052834;28;20171;-57
2022/05/19 05:05:23;;;;;;;5.03;2.90;;;18.60;99.90;;;;;;5052350;28;20175;-60
2022/05/19 05:07:49;;;;;;;3.10;2.55;;;18.70;99.90;;;;;;5053013;28;20264;-57
2022/05/19 05:10:14;;;;;;;2.50;2.30;;;18.60;99.90;;;;;;5035360;28;20179;-57
2022/05/19 05:12:40;;;;;;;2.65;2.35;;;18.60;99.90;;;;;;5035405;28;20593;-57
2022/05/19 05:15:06;;;;;;;2.33;2.13;;;18.60;99.90;;;;;;5053169;28;20254;-57
2022/05/19 05:17:32;;;;;;;3.70;2.45;;;18.70;99.90;;;;;;5052927;28;20187;-57
2022/05/19 05:19:58;;;;;;;2.50;1.90;;;18.70;99.90;;;;;;5052807;28;20174;-57
2022/05/19 05:22:23;;;;;;;2.90;2.60;;;18.60;99.90;;;;;;5053206;28;20674;-58
2022/05/19 05:24:49;;;;;;;3.00;2.70;;;18.70;99.90;;;;;;5053102;28;20654;-58
2022/05/19 05:27:15;;;;;;;3.22;2.60;;;18.70;99.90;;;;;;5053134;28;20272;-57
2022/05/19 05:29:40;;;;;;;3.90;2.70;;;18.70;99.90;;;;;;5052893;28;20690;-57
2022/05/19 05:32:06;;;;;;;4.82;2.47;;;18.70;99.90;;;;;;5052867;28;20206;-57
2022/05/19 05:34:32;;;;;;;4.20;2.47;;;18.80;99.90;;;;;;5052805;28;20197;-57
2022/05/19 05:36:58;;;;;;;2.65;2.17;;;18.80;99.90;;;;;;5053062;28;20501;-57
2022/05/19 05:39:23;;;;;;;3.40;2.60;;;18.90;99.90;;;;;;5053074;28;20590;-57
2022/05/19 05:41:49;;;;;;;3.03;2.72;;;18.80;99.90;;;;;;5053236;28;20642;-58
2022/05/19 05:44:15;;;;;;;2.45;2.25;;;18.90;99.90;;;;;;5020011;28;20194;-57
2022/05/19 05:46:41;;;;;;;2.40;2.13;;;18.90;99.90;;;;;;5056809;28;20238;-57
2022/05/19 05:49:08;;;;;;;3.65;2.30;;;19.10;99.90;;;;;;5038834;28;20274;-57
2022/05/19 05:51:33;;;;;;;3.95;2.25;;;19.10;99.90;;;;;;5056742;28;20160;-57
2022/05/19 05:53:59;;;;;;;3.63;2.75;;;19.10;99.90;;;;;;5056779;28;20574;-58
2022/05/19 05:56:25;;;;;;;4.13;2.53;;;19.20;99.90;;;;;;5039044;28;20207;-58
2022/05/19 05:58:51;;;;;;;3.45;2.65;;;19.30;99.90;;;;;;5056513;28;20533;-58
2022/05/19 06:01:18;;;;;;;3.83;2.40;;;19.50;99.90;;;;;;5056638;28;20823;-58
2022/05/19 06:03:45;;;;;;;2.58;2.28;;;19.70;99.90;;;;;;5056339;28;20171;-57
2022/05/19 06:06:11;;;;;;;3.33;2.70;;;19.80;99.90;;;;;;5056316;28;20568;-57
2022/05/19 06:08:37;;;;;;;3.60;2.50;;;19.90;99.90;;;;;;5056597;28;20203;-58
2022/05/19 06:11:04;;;;;;;3.22;2.65;;;19.90;99.90;;;;;;5056458;28;20187;-57
2022/05/19 06:13:29;;;;;;;3.47;3.10;;;20.00;99.90;;;;;;5056379;28;20176;-57
2022/05/19 06:15:55;;;;;;;3.53;3.05;;;20.20;99.90;;;;;;5038621;28;20220;-57
2022/05/19 06:18:21;;;;;;;3.10;2.80;;;20.30;99.90;;;;;;5038375;28;20636;-58
2022/05/19 06:20:47;;;;;;;2.55;2.20;;;20.40;99.90;;;;;;5056022;28;20621;-58
2022/05/19 06:23:16;;;;;;;2.45;2.25;;;20.50;99.90;;;;;;5056239;28;20236;-58
2022/05/19 06:25:42;;;;;;;4.18;3.20;;;20.60;99.90;;;;;;5056148;28;20179;-57
2022/05/19 06:28:07;;;;;;;3.00;2.67;;;20.80;99.90;;;;;;5056077;28;20220;-57
2022/05/19 06:30:33;;;;;;;2.70;2.50;;;20.80;99.90;;;;;;5056180;28;20643;-57
2022/05/19 06:32:59;;;;;;;2.80;2.45;;;20.90;99.90;;;;;;5055872;28;20190;-58
2022/05/19 06:35:28;;;;;;;2.60;2.40;;;21.00;99.90;;;;;;5056076;28;20249;-58
2022/05/19 06:37:54;;;;;;;3.05;2.67;;;21.00;99.90;;;;;;5056018;28;20175;-58
2022/05/19 06:40:24;;;;;;;2.63;2.10;;;21.20;99.90;;;;;;5055905;28;20718;-58
2022/05/19 06:42:50;;;;;;;3.28;2.17;;;21.20;99.90;;;;;;5038001;28;20572;-58
2022/05/19 06:45:19;;;;;;;2.28;2.08;;;21.30;99.90;;;;;;5055655;28;20536;-58
2022/05/19 06:47:45;;;;;;;2.53;2.05;;;21.30;99.90;;;;;;5055391;28;20211;-57
2022/05/19 06:50:13;;;;;;;3.17;2.50;;;21.30;99.90;;;;;;5055801;28;20648;-58
2022/05/19 06:52:45;;;;;;;3.00;2.60;;;21.30;99.90;;;;;;5037807;28;20690;-58
2022/05/19 06:55:13;;;;;;;3.38;2.10;;;21.30;99.90;;;;;;5054865;28;20179;-57
2022/05/19 06:57:39;;;;;;;2.90;2.20;;;21.30;99.90;;;;;;5055337;28;20202;-57
2022/05/19 07:00:07;;;;;;;2.22;2.03;;;21.50;99.90;;;;;;5055191;28;21073;-57
2022/05/19 07:02:34;;;;;;;2.65;2.00;;;21.60;99.90;;;;;;5055402;28;20544;-57
2022/05/19 07:05:00;;;;;;;2.10;1.85;;;21.70;99.90;;;;;;5055534;28;20238;-58
2022/05/19 07:07:25;;;;;;;3.95;2.25;;;21.70;99.90;;;;;;5055376;28;20344;-57
2022/05/19 07:09:51;;;;;;;2.20;1.98;;;21.70;99.90;;;;;;5037439;28;20183;-58
2022/05/19 07:12:26;;;;;;;4.47;2.28;;;21.70;99.90;;;;;;5055263;28;20257;-57
2022/05/19 07:14:52;;;;;;;2.45;1.88;;;21.60;99.90;;;;;;5055438;28;20230;-58
2022/05/19 07:17:18;;;;;;;2.55;2.17;;;21.60;99.90;;;;;;5055335;28;20729;-58
2022/05/19 07:22:29;;;;;;;2.70;2.13;;;21.60;99.90;;;;;;5055424;28;20590;-57
2022/05/19 07:24:55;;;;;;;2.47;2.00;;;21.40;99.90;;;;;;5037233;28;20751;-57
2022/05/19 07:27:20;;;;;;;2.17;1.98;;;21.40;99.90;;;;;;5055251;28;20285;-58
2022/05/19 07:29:46;;;;;;;1.85;1.73;;;21.30;99.90;;;;;;5055070;28;20536;-58
2022/05/19 07:32:12;;;;;;;2.38;2.17;;;21.30;99.90;;;;;;5054952;28;20544;-58
2022/05/19 07:34:40;;;;;;;2.50;2.25;;;21.20;99.90;;;;;;5054912;28;20172;-58
2022/05/19 07:37:06;;;;;;;2.42;2.10;;;21.20;99.90;;;;;;5054819;28;20183;-57
2022/05/19 07:39:32;;;;;;;2.28;2.08;;;21.30;99.90;;;;;;5054642;28;20646;-58
2022/05/19 07:41:58;;;;;;;2.60;2.30;;;21.40;99.90;;;;;;5054784;28;20186;-58
2022/05/19 07:44:26;;;;;;;2.38;2.17;;;21.60;99.90;;;;;;5054780;28;20167;-58
2022/05/19 07:46:52;;;;;;;3.65;2.85;;;21.60;99.90;;;;;;5054653;28;20199;-58
2022/05/19 07:49:18;;;;;;;5.05;2.65;;;21.70;99.90;;;;;;5036943;28;20393;-57
2022/05/19 07:51:45;;;;;;;2.78;2.42;;;21.80;99.90;;;;;;5036810;28;20226;-58
2022/05/19 07:54:13;;;;;;;3.60;2.85;;;21.80;99.90;;;;;;5036676;28;20182;-58
2022/05/19 07:56:40;;;;;;;2.80;2.47;;;21.80;99.90;;;;;;5054644;28;20185;-58
2022/05/19 07:59:08;;;;;;;3.22;2.90;;;21.90;99.90;;;;;;5054441;28;20435;-58
2022/05/19 08:01:34;;;;;;;3.60;3.25;;;22.10;99.90;;;;;;5054658;28;20191;-58
2022/05/19 08:04:00;;;;;;;4.25;3.10;;;22.10;99.90;;;;;;5054312;28;20175;-58
2022/05/19 08:06:28;;;;;;;4.15;2.97;;;22.10;99.90;;;;;;5036407;28;20229;-58
2022/05/19 08:08:54;;;;;;;4.10;3.63;;;22.00;99.90;;;;;;5054072;28;20236;-58
2022/05/19 08:11:20;;;;;;;4.10;3.33;;;21.90;99.90;;;;;;5036696;28;20167;-58
2022/05/19 08:16:30;;;;;;;4.32;3.53;;;21.70;99.90;;;;;;5054329;28;20544;-57
2022/05/19 08:18:56;;;;;;;4.22;3.60;;;21.70;99.90;;;;;;5053888;28;20175;-58
2022/05/19 08:21:22;;;;;;;4.70;3.72;;;21.60;99.90;;;;;;5053851;28;20186;-58
2022/05/19 08:23:52;;;;;;;4.15;3.60;;;21.50;99.90;;;;;;5054222;28;20265;-58
2022/05/19 08:26:18;;;;;;;4.50;3.40;;;21.60;99.90;;;;;;5036537;28;20180;-58
2022/05/19 08:28:45;;;;;;;3.88;3.55;;;21.60;99.90;;;;;;5053775;28;20705;-57
2022/05/19 08:31:20;;;;;;;5.30;3.60;;;21.80;99.90;;;;;;5053699;28;20738;-58
2022/05/19 08:33:48;;;;;;;4.80;3.55;;;22.00;99.90;;;;;;5053724;28;20167;-57
2022/05/19 08:36:14;;;;;;;4.68;3.70;;;22.30;99.90;;;;;;5053838;28;20189;-58
2022/05/19 08:38:40;;;;;;;5.15;4.15;;;22.70;99.90;;;;;;5053548;28;20637;-58
2022/05/19 08:41:22;;;;;;;3.95;3.55;;;22.90;99.90;;;;;;5053715;28;20248;-58
2022/05/19 08:44:11;;;;;;;5.57;4.20;;;23.20;99.90;;;;;;5053488;28;20270;-58
2022/05/19 08:46:39;;;;;;;4.40;3.88;;;23.60;99.90;;;;;;5016273;28;20245;-57
2022/05/19 08:49:12;;;;;;;5.25;4.10;;;23.80;99.90;;;;;;5053406;28;20206;-58
2022/05/19 08:51:44;;;;;;;5.78;4.55;;;24.10;99.90;;;;;;5053589;28;20258;-58
2022/05/19 08:54:14;;;;;;;4.57;3.70;;;24.40;99.90;;;;;;5053332;28;20255;-59
2022/05/19 08:56:54;;;;;;;4.38;3.90;;;24.50;99.90;;;;;;5053154;28;20237;-58
2022/05/19 08:59:29;;;;;;;4.05;3.30;;;24.60;99.90;;;;;;5053513;28;20170;-58
2022/05/19 09:02:12;;;;;;;4.05;3.65;;;25.00;99.90;;;;;;5035354;28;20198;-58
2022/05/19 09:04:47;;;;;;;4.97;3.47;;;25.10;99.90;;;;;;5053319;28;20175;-58
2022/05/19 09:10:24;;;;;;;3.63;3.33;;;25.20;99.90;;;;;;5053207;28;20762;-57
2022/05/19 09:12:57;;;;;;;3.92;3.33;;;25.40;99.90;;;;;;5035327;28;20261;-58
2022/05/19 09:15:23;;;;;;;3.47;3.15;;;25.40;99.90;;;;;;5053089;28;20172;-58
2022/05/19 09:17:49;;;;;;;3.60;3.10;;;25.40;99.90;;;;;;5035237;28;20202;-58
2022/05/19 09:20:37;;;;;;;3.65;3.13;;;25.20;99.90;;;;;;5053040;28;20325;-58
2022/05/19 09:23:04;;;;;;;4.03;2.85;;;24.90;99.90;;;;;;5053239;28;20178;-58
2022/05/19 09:25:32;;;;;;;3.45;2.63;;;24.80;99.90;;;;;;5053018;28;20178;-58
2022/05/19 09:28:01;;;;;;;3.05;2.42;;;24.60;99.90;;;;;;5035300;28;20207;-60
2022/05/19 09:30:29;;;;;;;2.80;2.20;;;24.50;99.90;;;;;;5052944;28;20628;-57
2022/05/19 09:32:56;;;;;;;2.30;2.10;;;24.50;99.90;;;;;;5053518;28;20171;-57
2022/05/19 09:35:47;;;;;;;2.85;2.55;;;24.60;99.90;;;;;;5053381;28;20190;-58
2022/05/19 09:38:31;;;;;;;2.90;2.60;;;24.70;99.90;;;;;;5052877;28;20640;-57
2022/05/19 09:41:08;;;;;;;2.25;1.88;;;24.80;99.90;;;;;;5053009;28;20316;-58
2022/05/19 09:43:37;;;;;;;2.95;2.50;;;24.90;99.90;;;;;;5053168;28;20205;-58
2022/05/19 09:46:14;;;;;;;2.70;2.20;;;25.10;99.90;;;;;;5052756;28;20636;-58
2022/05/19 09:48:58;;;;;;;4.25;2.13;;;25.30;99.90;;;;;;5052805;28;20627;-58
2022/05/19 09:51:29;;;;;;;2.78;2.40;;;25.60;99.90;;;;;;5052911;28;20194;-58
2022/05/19 09:53:58;;;;;;;4.00;2.75;;;25.50;99.90;;;;;;5052993;28;20720;-57
2022/05/19 09:56:33;;;;;;;2.80;2.50;;;25.30;99.90;;;;;;5052808;28;20193;-58
2022/05/19 09:59:25;;;;;;;4.00;2.97;;;25.20;99.90;;;;;;5052845;28;20663;-59
2022/05/19 10:02:01;;;;;;;4.43;2.15;;;24.90;99.90;;;;;;5052955;28;20282;-58
2022/05/19 10:04:39;;;;;;;3.65;3.13;;;24.60;99.90;;;;;;5035054;28;20175;-58
2022/05/19 10:07:26;;;;;;;3.85;2.90;;;24.20;99.90;;;;;;5034832;28;20203;-58
2022/05/19 10:09:56;;;;;;;4.38;3.20;;;23.90;99.90;;;;;;5052848;28;20512;-57
2022/05/19 10:12:25;;;;;;;4.75;3.15;;;23.60;99.90;;;;;;5052856;28;20245;-58
2022/05/19 10:15:00;;;;;;;3.75;2.97;;;23.40;99.90;;;;;;5052551;28;20229;-58
2022/05/19 10:17:51;;;;;;;5.25;3.13;;;23.20;99.90;;;;;;5052657;28;20208;-57
2022/05/19 10:20:29;;;;;;;3.90;3.28;;;23.00;99.90;;;;;;5041856;28;20184;-57
2022/05/19 10:23:18;;;;;;;3.70;3.00;;;22.90;99.90;;;;;;5052602;28;20171;-57
2022/05/19 10:26:08;;;;;;;11.43;3.42;;;22.80;99.90;;;;;;5052417;28;20648;-57
2022/05/19 10:32:12;;;;;;;2.72;2.13;;;21.40;99.90;;;;;;5055066;28;20194;-57
2022/05/19 10:34:41;;;;;;;2.08;1.70;;;20.70;99.90;;;;;;5055913;28;20171;-58
2022/05/19 10:37:25;;;;;;;2.67;2.05;;;20.20;99.90;;;;;;5056142;28;20182;-57
2022/05/19 10:40:13;;;;;;;2.58;2.05;;;19.90;99.90;;;;;;5056070;28;20167;-57
2022/05/19 10:42:53;;;;;;;4.18;1.85;;;19.60;99.90;;;;;;5055853;28;20536;-57
2022/05/19 10:45:28;;;;;;;2.70;1.80;;;19.50;99.90;;;;;;5055793;28;20171;-57
2022/05/19 10:48:30;;;;;;;3.22;2.17;;;19.40;99.90;;;;;;5055762;28;20206;-58
2022/05/19 10:51:21;;;;;;;2.00;1.80;;;19.40;99.90;;;;;;5055751;28;20171;-57
2022/05/19 10:54:17;;;;;;;4.97;2.17;;;19.40;99.90;;;;;;5055948;28;20209;-58
2022/05/19 10:57:01;;;;;;;2.78;2.30;;;19.10;99.90;;;;;;5055867;28;20263;-57
2022/05/19 10:59:48;;;;;;;4.57;2.90;;;19.10;99.90;;;;;;5055454;28;20170;-57
2022/05/19 11:03:02;;;;;;;3.05;2.42;;;19.10;99.90;;;;;;5055706;28;20277;-57
2022/05/19 11:05:52;;;;;;;3.72;3.25;;;19.10;99.90;;;;;;5048272;28;20547;-57
2022/05/19 11:08:29;;;;;;;4.57;3.47;;;19.20;99.90;;;;;;5055508;28;20206;-58
2022/05/19 11:11:04;;;;;;;6.00;3.97;;;19.30;99.90;;;;;;5055509;28;20225;-58
2022/05/19 11:13:46;;;;;;;5.68;5.10;;;19.20;99.90;;;;;;5055396;28;20187;-57
2022/05/19 11:16:39;;;;;;;5.97;5.10;;;18.90;99.90;;;;;;5020971;28;20524;-58
2022/05/19 11:19:20;;;;;;;7.22;6.03;;;18.80;99.90;;;;;;5055439;28;20178;-57
2022/05/19 11:21:50;;;;;;;6.65;5.80;;;18.80;99.90;;;;;;5055158;28;20171;-60
2022/05/19 11:24:24;;;;;;;7.13;5.88;;;19.00;99.90;;;;;;5055148;28;20686;-57
2022/05/19 11:26:59;;;;;;;6.88;6.18;;;19.10;99.90;;;;;;5055259;28;20295;-57
2022/05/19 11:29:43;;;;;;;6.05;5.25;;;19.20;99.90;;;;;;5055106;28;20268;-57
2022/05/19 11:32:23;;;;;;;6.90;5.35;;;19.30;99.90;;;;;;5054987;28;20256;-57
2022/05/19 11:34:56;;;;;;;6.28;5.22;;;19.20;99.90;;;;;;5054967;28;20344;-57
2022/05/19 11:37:26;;;;;;;5.72;4.88;;;19.30;99.90;;;;;;5055066;28;20544;-57
2022/05/19 11:40:04;;;;;;;4.63;4.18;;;19.30;99.90;;;;;;5054880;28;20187;-57
2022/05/19 11:42:35;;;;;;;5.40;4.50;;;19.40;99.90;;;;;;5054385;28;20182;-57
2022/05/19 11:45:04;;;;;;;4.50;3.90;;;19.30;99.90;;;;;;5054648;28;20182;-57
2022/05/19 11:56:29;;;;;;;4.47;4.07;;;19.40;99.90;;;;;;5038390;28;20237;-58
2022/05/19 11:58:57;;;;;;;5.07;3.58;;;19.20;99.90;;;;;;5054538;28;20648;-58
2022/05/19 12:01:26;;;;;;;4.15;3.75;;;19.20;99.90;;;;;;5054530;28;20203;-58
2022/05/19 12:04:08;;;;;;;4.68;3.60;;;19.20;99.90;;;;;;5054248;28;20179;-57
2022/05/19 12:06:45;;;;;;;3.80;3.33;;;19.40;99.90;;;;;;5054307;28;20203;-60
2022/05/19 12:09:27;;;;;;;4.15;3.38;;;19.70;99.90;;;;;;5054280;28;20175;-59
2022/05/19 12:11:58;;;;;;;6.00;3.75;;;19.90;99.90;;;;;;5054193;28;20171;-58
2022/05/19 12:14:27;;;;;;;5.15;4.45;;;20.40;99.90;;;;;;5054115;28;20171;-58
2022/05/19 12:17:03;;;;;;;5.43;3.90;;;20.50;99.90;;;;;;5054191;28;20212;-58
2022/05/19 12:19:52;;;;;;;4.38;3.28;;;20.80;99.90;;;;;;5054060;28;20182;-57
2022/05/19 12:22:24;;;;;;;3.00;2.70;;;20.70;99.90;;;;;;5054116;28;20171;-57
2022/05/19 12:25:16;;;;;;;3.42;3.10;;;20.70;99.90;;;;;;5053834;28;20171;-58
2022/05/19 12:27:54;;;;;;;2.90;2.60;;;20.50;99.90;;;;;;5050098;28;20232;-57
2022/05/19 12:33:29;;;;;;;3.38;2.63;;;20.30;99.90;;;;;;5053993;28;20237;-59
2022/05/19 12:36:25;;;;;;;2.92;2.63;;;20.30;99.90;;;;;;5053888;28;20171;-57
2022/05/19 12:38:53;;;;;;;3.50;2.92;;;20.20;99.90;;;;;;5018546;28;20182;-57
2022/05/19 12:41:35;;;;;;;3.05;2.75;;;20.10;99.90;;;;;;5053557;28;20171;-57
2022/05/19 12:44:29;;;;;;;3.58;2.90;;;20.10;99.90;;;;;;5053720;28;20191;-57
2022/05/19 12:47:10;;;;;;;3.40;2.88;;;20.10;99.90;;;;;;5053411;28;20671;-57
2022/05/19 12:49:36;;;;;;;3.83;3.20;;;20.30;99.90;;;;;;5053613;28;20659;-57
2022/05/19 12:52:17;;;;;;;2.60;2.40;;;20.20;99.90;;;;;;5053274;28;20164;-57
2022/05/19 12:54:52;;;;;;;3.38;2.80;;;20.30;99.90;;;;;;5052861;28;20640;-57
2022/05/19 12:57:36;;;;;;;5.20;2.97;;;20.70;99.90;;;;;;5053392;28;20187;-57
2022/05/19 13:00:11;;;;;;;3.15;2.40;;;20.90;99.90;;;;;;5053347;28;20181;-57
2022/05/19 13:02:53;;;;;;;4.68;3.80;;;21.10;99.90;;;;;;5053190;28;20577;-57
2022/05/19 13:05:26;;;;;;;5.20;3.72;;;21.30;99.90;;;;;;5053248;28;20630;-58
2022/05/19 13:08:01;;;;;;;5.47;4.05;;;21.60;99.90;;;;;;5053307;28;20559;-57
2022/05/19 13:10:38;;;;;;;4.90;3.58;;;21.50;99.90;;;;;;5053214;28;20179;-57
2022/05/19 13:13:23;;;;;;;4.38;3.97;;;21.50;99.90;;;;;;5053070;28;20171;-57
2022/05/19 13:15:58;;;;;;;4.57;4.10;;;21.80;99.90;;;;;;5053265;28;20171;-57
2022/05/19 13:18:31;;;;;;;4.20;3.80;;;21.80;99.90;;;;;;5053190;28;20185;-57
2022/05/19 13:21:10;;;;;;;4.22;3.83;;;21.90;99.90;;;;;;5053098;28;20593;-57
2022/05/19 13:23:39;;;;;;;4.70;3.45;;;21.90;99.90;;;;;;5053291;28;20167;-57
2022/05/19 13:26:22;;;;;;;3.03;2.70;;;21.90;99.90;;;;;;5053138;28;20178;-57
2022/05/19 13:32:00;;;;;;;3.95;3.17;;;22.40;99.90;;;;;;5053310;28;20206;-57
2022/05/19 13:34:28;;;;;;;2.85;2.58;;;22.20;99.90;;;;;;5053105;28;20178;-57
2022/05/19 13:36:59;;;;;;;3.17;2.83;;;21.90;99.90;;;;;;5035154;28;20700;-57
2022/05/19 13:39:27;;;;;;;2.92;2.47;;;21.70;99.90;;;;;;5053037;28;20172;-57